Time;durP1;ratioP1;P1;durP2;ratioP2;P2;SDS_P1;SDS_P2;PMS_P1;PMS_P2;Temp;Humidity;BMP_temperature;BMP_pressure;BME280_temperature;BME280_humidity;BME280_pressure;Samples;Min_cycle;Max_cycle;Signal;HPM_P1;HPM_P2
2021/03/31 00:00:39;;;;;;;34.75;20.70;;;;;;;12.17;100.00;102397.34;5052814;28;20498;-68
2021/03/31 00:03:17;;;;;;;35.53;20.60;;;;;;;12.14;100.00;102398.59;5052541;28;20058;-69
2021/03/31 00:05:43;;;;;;;38.17;21.73;;;;;;;12.13;100.00;102396.91;5052680;28;20171;-71
2021/03/31 00:08:09;;;;;;;33.05;19.92;;;;;;;12.10;100.00;102397.34;5052450;28;20044;-68
2021/03/31 00:10:42;;;;;;;38.30;21.77;;;;;;;12.07;100.00;102392.28;5052336;28;20040;-69
2021/03/31 00:13:07;;;;;;;43.67;20.25;;;;;;;12.07;100.00;102398.63;5052431;28;20036;-69
2021/03/31 00:15:33;;;;;;;40.15;21.98;;;;;;;12.05;100.00;102388.94;5052289;28;20048;-69
2021/03/31 00:17:59;;;;;;;36.38;20.45;;;;;;;12.04;100.00;102385.34;5052196;28;20593;-70
2021/03/31 00:20:25;;;;;;;38.47;21.55;;;;;;;12.05;100.00;102377.97;5052330;28;20541;-71
2021/03/31 00:22:51;;;;;;;38.85;20.73;;;;;;;12.05;100.00;102380.72;5052070;28;20125;-69
2021/03/31 00:25:17;;;;;;;36.83;20.30;;;;;;;12.03;100.00;102374.63;5051688;28;20116;-69
2021/03/31 00:27:43;;;;;;;39.22;22.10;;;;;;;12.02;100.00;102383.88;5052147;28;20044;-69
2021/03/31 00:30:13;;;;;;;36.03;21.75;;;;;;;11.99;100.00;102398.00;5052118;28;20083;-69
2021/03/31 00:32:39;;;;;;;43.88;22.90;;;;;;;11.95;100.00;102394.84;5051741;28;20380;-68
2021/03/31 00:35:08;;;;;;;36.20;20.85;;;;;;;11.94;100.00;102408.75;5051876;28;20041;-69
2021/03/31 00:37:35;;;;;;;33.67;21.80;;;;;;;11.92;100.00;102389.78;5051793;28;20445;-70
2021/03/31 00:40:03;;;;;;;36.28;20.27;;;;;;;11.90;100.00;102377.38;5051663;28;20040;-70
2021/03/31 00:42:29;;;;;;;33.75;20.05;;;;;;;11.90;100.00;102380.94;5051870;28;20028;-68
2021/03/31 00:44:55;;;;;;;38.95;20.65;;;;;;;11.91;100.00;102377.16;5051824;28;20498;-68
2021/03/31 00:47:22;;;;;;;39.92;20.92;;;;;;;11.91;100.00;102376.31;5051569;28;20049;-69
2021/03/31 00:49:47;;;;;;;39.63;22.63;;;;;;;11.90;100.00;102383.69;5051566;28;20491;-71
2021/03/31 00:52:13;;;;;;;37.25;20.27;;;;;;;11.91;100.00;102376.31;5051710;28;20029;-70
2021/03/31 00:54:39;;;;;;;33.30;20.25;;;;;;;11.92;100.00;102372.53;5050187;28;20040;-68
2021/03/31 00:57:05;;;;;;;33.88;21.25;;;;;;;11.92;100.00;102356.09;5051557;28;20045;-69
2021/03/31 00:59:31;;;;;;;37.90;21.00;;;;;;;11.94;100.00;102348.50;5051562;28;20499;-69
2021/03/31 01:01:57;;;;;;;37.15;20.08;;;;;;;11.94;100.00;102343.03;5051486;28;20036;-69
2021/03/31 01:04:22;;;;;;;33.47;18.67;;;;;;;11.93;100.00;102341.34;5051322;28;20033;-69
2021/03/31 01:06:48;;;;;;;29.65;17.48;;;;;;;11.93;100.00;102335.88;5050098;28;20471;-69
2021/03/31 01:09:14;;;;;;;30.70;19.30;;;;;;;11.93;100.00;102328.50;5051310;28;20032;-69
2021/03/31 01:11:55;;;;;;;32.60;18.88;;;;;;;11.95;100.00;102329.13;5051270;28;20087;-68
2021/03/31 01:14:39;;;;;;;33.20;19.85;;;;;;;11.97;100.00;102328.91;5051206;28;20040;-68
2021/03/31 01:17:11;;;;;;;36.40;20.25;;;;;;;11.96;100.00;102319.00;5049626;28;20407;-70
2021/03/31 01:19:46;;;;;;;32.13;18.92;;;;;;;11.96;100.00;102316.25;5051286;28;20036;-70
2021/03/31 01:22:45;;;;;;;33.42;20.48;;;;;;;11.96;100.00;102319.00;5051139;28;20033;-71
2021/03/31 01:25:14;;;;;;;36.60;19.48;;;;;;;11.97;100.00;102309.72;5051203;28;20476;-68
2021/03/31 01:27:48;;;;;;;32.75;18.77;;;;;;;11.97;100.00;102309.72;5049805;28;20041;-69
2021/03/31 01:30:17;;;;;;;;;;;;;;;11.93;100.00;102298.38;5051637;28;20032;-69
2021/03/31 01:32:51;;;;;;;27.20;16.52;;;;;;;11.89;100.00;102288.06;5049843;28;20264;-69
2021/03/31 01:35:18;;;;;;;25.95;15.43;;;;;;;11.83;100.00;102284.31;5051287;28;20090;-69
2021/03/31 01:38:17;;;;;;;25.67;14.25;;;;;;;11.80;100.00;102292.09;5050185;28;20385;-67
2021/03/31 01:40:49;;;;;;;24.25;14.65;;;;;;;11.76;100.00;102287.00;5048742;28;20138;-69
2021/03/31 01:43:21;;;;;;;21.77;13.48;;;;;;;11.74;100.00;102283.66;5049062;28;20115;-70
2021/03/31 01:45:56;;;;;;;18.45;12.93;;;;;;;11.72;100.00;102274.81;5050961;28;20040;-70
2021/03/31 01:48:26;;;;;;;23.80;14.82;;;;;;;11.69;100.00;102278.00;5051063;28;20044;-71
2021/03/31 01:51:01;;;;;;;28.52;15.10;;;;;;;11.69;100.00;102269.78;5051039;28;20048;-70
2021/03/31 01:53:27;;;;;;;28.52;15.80;;;;;;;11.69;100.00;102264.31;5050679;28;20033;-71
2021/03/31 01:55:54;;;;;;;23.10;14.57;;;;;;;11.68;100.00;102267.25;5051092;28;20037;-69
2021/03/31 01:58:22;;;;;;;33.60;15.27;;;;;;;11.67;100.00;102260.94;5050867;28;20032;-70
2021/03/31 02:00:49;;;;;;;21.88;12.50;;;;;;;11.65;100.00;102252.13;5050638;28;20037;-69
2021/03/31 02:03:17;;;;;;;22.95;13.82;;;;;;;11.63;100.00;102246.00;5050604;28;20051;-68
2021/03/31 02:05:45;;;;;;;23.23;13.80;;;;;;;11.60;100.00;102238.22;5050637;28;20040;-67
2021/03/31 02:08:13;;;;;;;23.20;13.80;;;;;;;11.54;100.00;102241.81;5050882;28;20115;-69
2021/03/31 02:10:40;;;;;;;25.35;13.77;;;;;;;11.49;100.00;102241.63;5050576;28;20046;-70
2021/03/31 02:13:07;;;;;;;24.23;14.85;;;;;;;11.45;100.00;102245.81;5050421;28;20040;-70
2021/03/31 02:15:34;;;;;;;21.58;14.05;;;;;;;11.42;100.00;102230.69;5050508;28;20041;-69
2021/03/31 02:18:06;;;;;;;19.13;12.77;;;;;;;11.42;100.00;102227.09;5050438;28;20495;-70
2021/03/31 02:20:33;;;;;;;23.75;14.95;;;;;;;11.40;100.00;102226.47;5050505;28;20423;-70
2021/03/31 02:22:59;;;;;;;23.75;14.40;;;;;;;11.39;100.00;102222.06;5050339;28;20033;-69
2021/03/31 02:25:25;;;;;;;23.63;14.13;;;;;;;11.37;100.00;102221.44;5050586;28;20045;-69
2021/03/31 02:27:50;;;;;;;21.08;14.05;;;;;;;11.35;100.00;102221.66;5050406;28;20610;-70
2021/03/31 02:30:21;;;;;;;22.25;13.77;;;;;;;11.34;100.00;102230.09;5050327;28;20037;-69
2021/03/31 02:32:50;;;;;;;28.65;14.95;;;;;;;11.31;100.00;102225.88;5050317;28;20052;-70
2021/03/31 02:35:20;;;;;;;24.27;13.95;;;;;;;11.30;100.00;102220.63;5050294;28;20483;-70
2021/03/31 02:37:47;;;;;;;23.02;13.50;;;;;;;11.27;100.00;102207.34;5050058;28;20082;-69
2021/03/31 02:40:14;;;;;;;25.98;15.18;;;;;;;11.23;100.00;102208.84;5050365;28;20391;-70
2021/03/31 02:42:40;;;;;;;24.27;14.95;;;;;;;11.21;100.00;102210.94;5050309;28;20116;-70
2021/03/31 02:45:07;;;;;;;31.48;14.63;;;;;;;11.20;100.00;102203.81;5050101;28;20048;-69
2021/03/31 02:47:38;;;;;;;25.50;15.48;;;;;;;11.20;100.00;102203.81;5051163;28;20037;-71
2021/03/31 02:50:05;;;;;;;24.90;15.98;;;;;;;11.20;100.00;102203.81;5053991;28;20040;-69
2021/03/31 02:52:32;;;;;;;20.45;14.90;;;;;;;11.17;100.00;102192.25;5053675;28;20029;-71
2021/03/31 02:55:00;;;;;;;29.38;15.55;;;;;;;11.14;100.00;102189.94;5053747;28;20063;-71
2021/03/31 02:57:27;;;;;;;30.95;17.80;;;;;;;11.13;100.00;102193.72;5053824;28;20076;-69
2021/03/31 02:59:54;;;;;;;28.50;18.73;;;;;;;11.11;100.00;102192.25;5053618;28;20041;-68
2021/03/31 03:02:20;;;;;;;39.13;18.58;;;;;;;11.09;100.00;102197.91;5053800;28;20467;-69
2021/03/31 03:04:51;;;;;;;31.95;18.25;;;;;;;11.09;100.00;102191.59;5053658;28;20499;-71
2021/03/31 03:07:18;;;;;;;31.35;19.10;;;;;;;11.06;100.00;102187.41;5053545;28;20037;-69
2021/03/31 03:09:45;;;;;;;29.58;17.98;;;;;;;11.02;100.00;102186.16;5053499;28;20028;-69
2021/03/31 03:12:16;;;;;;;27.55;17.38;;;;;;;10.99;100.00;102180.28;5084835;28;20041;-70
2021/03/31 03:14:44;;;;;;;33.13;18.35;;;;;;;10.97;100.00;102183.22;5053392;28;20043;-69
2021/03/31 03:17:10;;;;;;;29.55;18.38;;;;;;;10.95;100.00;102185.34;5053409;28;20025;-69
2021/03/31 03:19:36;;;;;;;31.95;19.05;;;;;;;10.92;100.00;102179.44;5053438;28;20037;-69
2021/03/31 03:22:03;;;;;;;27.35;17.42;;;;;;;10.90;100.00;102189.72;5053724;28;20106;-69
2021/03/31 03:24:30;;;;;;;26.33;16.92;;;;;;;10.89;100.00;102180.69;5053183;28;20115;-69
2021/03/31 03:26:58;;;;;;;26.88;17.27;;;;;;;10.85;100.00;102174.81;5053189;28;20063;-69
2021/03/31 03:29:24;;;;;;;25.80;16.48;;;;;;;10.85;100.00;102179.44;5053158;28;20039;-67
2021/03/31 03:31:52;;;;;;;27.95;16.90;;;;;;;10.84;100.00;102185.97;5053285;28;20032;-68
2021/03/31 03:34:18;;;;;;;27.77;17.50;;;;;;;10.82;100.00;102182.59;5053104;28;20122;-71
2021/03/31 03:36:45;;;;;;;29.92;18.35;;;;;;;10.81;100.00;102186.41;5052828;28;20041;-69
2021/03/31 03:39:11;;;;;;;31.63;19.33;;;;;;;10.77;100.00;102187.88;5053033;28;20041;-69
2021/03/31 03:41:37;;;;;;;27.65;17.83;;;;;;;10.74;100.00;102188.28;5053012;28;20209;-69
2021/03/31 03:44:06;;;;;;;26.48;17.83;;;;;;;10.72;100.00;102190.38;5052845;28;20048;-70
2021/03/31 03:46:34;;;;;;;23.27;17.85;;;;;;;10.71;100.00;102183.22;5052950;28;20459;-71
2021/03/31 03:49:01;;;;;;;27.65;17.75;;;;;;;10.68;100.00;102183.66;5052889;28;20383;-70
2021/03/31 03:51:28;;;;;;;27.88;17.05;;;;;;;10.67;100.00;102192.91;5052698;28;20041;-70
2021/03/31 03:53:55;;;;;;;32.88;18.77;;;;;;;10.66;100.00;102196.69;5052666;28;20037;-69
2021/03/31 03:56:21;;;;;;;31.85;19.30;;;;;;;10.65;100.00;102195.00;5052645;28;20047;-69
2021/03/31 03:58:47;;;;;;;29.98;18.13;;;;;;;10.65;100.00;102200.47;5052011;28;20075;-69
2021/03/31 04:01:14;;;;;;;30.15;18.33;;;;;;;10.63;100.00;102186.19;5052397;28;20041;-69
2021/03/31 04:03:40;;;;;;;32.92;20.02;;;;;;;10.61;100.00;102182.81;5052557;28;20033;-68
2021/03/31 04:06:06;;;;;;;32.38;19.95;;;;;;;10.55;100.00;102185.31;5052510;28;20041;-70
2021/03/31 04:08:32;;;;;;;36.28;21.55;;;;;;;10.51;100.00;102189.53;5052509;28;20036;-68
2021/03/31 04:10:59;;;;;;;36.75;21.17;;;;;;;10.48;100.00;102183.66;5052513;28;20103;-70
2021/03/31 04:13:26;;;;;;;30.05;19.83;;;;;;;10.43;100.00;102187.00;5050799;28;20036;-69
2021/03/31 04:15:58;;;;;;;31.25;21.10;;;;;;;10.41;100.00;102183.66;5051031;28;20036;-68
2021/03/31 04:18:24;;;;;;;34.22;20.45;;;;;;;10.39;100.00;102185.72;5052317;28;20040;-68
2021/03/31 04:20:51;;;;;;;37.92;19.70;;;;;;;10.38;100.00;102192.22;5052148;28;20037;-70
2021/03/31 04:23:17;;;;;;;31.90;17.92;;;;;;;10.38;100.00;102188.66;5052193;28;20033;-70
2021/03/31 04:25:43;;;;;;;36.15;18.48;;;;;;;10.38;100.00;102194.13;5052229;28;20521;-70
2021/03/31 04:28:11;;;;;;;33.47;19.48;;;;;;;10.35;100.00;102192.66;5051899;28;20048;-69
2021/03/31 04:30:39;;;;;;;41.42;20.27;;;;;;;10.34;100.00;102188.25;5051967;28;20041;-68
2021/03/31 04:33:07;;;;;;;33.00;20.23;;;;;;;10.33;100.00;102191.19;5051987;28;20391;-69
2021/03/31 04:35:33;;;;;;;32.63;21.20;;;;;;;10.31;100.00;102188.66;5051861;28;20506;-68
2021/03/31 04:38:10;;;;;;;36.72;19.73;;;;;;;10.29;100.00;102196.22;5051763;28;20041;-69
2021/03/31 04:40:50;;;;;;;32.75;19.85;;;;;;;10.26;100.00;102186.56;5051904;28;20051;-69
2021/03/31 04:43:16;;;;;;;29.50;20.02;;;;;;;10.25;100.00;102189.50;5051631;28;20436;-68
2021/03/31 04:45:42;;;;;;;32.38;19.35;;;;;;;10.24;100.00;102194.13;5051780;28;20045;-68
2021/03/31 04:48:08;;;;;;;33.83;18.77;;;;;;;10.23;100.00;102192.41;5051658;28;20036;-68
2021/03/31 04:50:34;;;;;;;31.15;18.75;;;;;;;10.24;100.00;102193.28;5051598;28;20037;-69
2021/03/31 04:52:59;;;;;;;33.58;18.55;;;;;;;10.25;100.00;102189.50;5051536;28;20423;-70
2021/03/31 04:55:25;;;;;;;27.05;18.67;;;;;;;10.26;100.00;102192.03;5051475;28;20106;-70
2021/03/31 04:57:51;;;;;;;29.27;19.15;;;;;;;10.27;100.00;102190.97;5051353;28;20086;-69
2021/03/31 05:00:17;;;;;;;30.33;18.70;;;;;;;10.29;100.00;102196.22;5051485;28;20107;-70
2021/03/31 05:02:42;;;;;;;34.85;21.10;;;;;;;10.29;100.00;102190.75;5051367;28;20068;-69
2021/03/31 05:05:08;;;;;;;35.60;22.65;;;;;;;10.28;100.00;102183.63;5051207;28;20128;-68
2021/03/31 05:07:34;;;;;;;39.05;24.38;;;;;;;10.26;100.00;102188.47;5051442;28;20119;-68
2021/03/31 05:09:59;;;;;;;36.53;22.52;;;;;;;10.26;100.00;102194.75;5050079;28;20444;-72
2021/03/31 05:12:25;;;;;;;36.95;22.00;;;;;;;10.25;100.00;102184.03;5051150;28;20036;-70
2021/03/31 05:14:51;;;;;;;38.58;23.42;;;;;;;10.26;100.00;102191.19;5049903;28;20095;-68
2021/03/31 05:17:17;;;;;;;34.85;22.08;;;;;;;10.25;100.00;102190.34;5051053;28;20071;-70
2021/03/31 05:19:43;;;;;;;37.63;23.17;;;;;;;10.26;100.00;102188.47;5050959;28;20080;-70
2021/03/31 05:22:08;;;;;;;37.67;23.23;;;;;;;10.26;100.00;102191.19;5051096;28;20045;-69
2021/03/31 05:24:34;;;;;;;38.28;22.80;;;;;;;10.25;100.00;102192.25;5051054;28;20040;-69
2021/03/31 05:27:01;;;;;;;41.35;23.80;;;;;;;10.25;100.00;102194.97;5051044;28;20170;-68
2021/03/31 05:29:27;;;;;;;40.72;23.63;;;;;;;10.19;100.00;102195.75;5051053;28;20047;-69
2021/03/31 05:31:52;;;;;;;42.10;24.85;;;;;;;10.16;100.00;102191.53;5051015;28;20041;-67
2021/03/31 05:34:18;;;;;;;45.17;23.88;;;;;;;10.14;100.00;102187.34;5050736;28;20047;-69
2021/03/31 05:36:43;;;;;;;40.50;26.60;;;;;;;10.12;100.00;102186.72;5050726;28;20049;-67
2021/03/31 05:39:09;;;;;;;42.70;26.00;;;;;;;10.12;100.00;102183.97;5051244;28;20045;-70
2021/03/31 05:41:35;;;;;;;43.92;26.52;;;;;;;10.12;100.00;102183.97;5050764;28;20087;-70
2021/03/31 05:44:02;;;;;;;37.60;24.67;;;;;;;10.11;100.00;102187.75;5050806;28;20040;-69
2021/03/31 05:46:28;;;;;;;44.22;25.08;;;;;;;10.10;100.00;102186.06;5050862;28;20037;-71
2021/03/31 05:48:55;;;;;;;42.95;25.38;;;;;;;10.11;100.00;102187.75;5050624;28;20174;-68
2021/03/31 05:51:20;;;;;;;40.50;25.50;;;;;;;10.11;100.00;102187.75;5050678;28;20051;-70
2021/03/31 05:53:46;;;;;;;41.58;24.55;;;;;;;10.13;100.00;102186.50;5050529;28;20041;-70
2021/03/31 05:56:12;;;;;;;46.10;25.80;;;;;;;10.15;100.00;102194.47;5049364;28;20060;-70
2021/03/31 05:58:37;;;;;;;47.30;25.73;;;;;;;10.16;100.00;102185.25;5050634;28;20048;-70
2021/03/31 06:01:04;;;;;;;39.40;23.33;;;;;;;10.16;100.00;102186.06;5050898;28;20067;-71
2021/03/31 06:03:31;;;;;;;37.70;23.92;;;;;;;10.17;100.00;102176.00;5050590;28;20052;-69
2021/03/31 06:05:58;;;;;;;37.17;24.25;;;;;;;10.18;100.00;102178.53;5050538;28;20052;-69
2021/03/31 06:08:24;;;;;;;38.58;25.15;;;;;;;10.20;100.00;102170.13;5050503;28;20041;-71
2021/03/31 06:11:00;;;;;;;41.28;24.30;;;;;;;10.20;100.00;102167.38;5050485;28;20511;-70
2021/03/31 06:13:29;;;;;;;42.40;26.08;;;;;;;10.19;100.00;102165.72;5050491;28;20107;-68
2021/03/31 06:15:55;;;;;;;44.67;26.23;;;;;;;10.19;100.00;102166.53;5050602;28;20488;-69
2021/03/31 06:18:21;;;;;;;49.33;27.40;;;;;;;10.19;100.00;102160.25;5049132;28;20044;-67
2021/03/31 06:21:04;;;;;;;42.85;26.85;;;;;;;10.22;100.00;102173.50;5050447;28;20037;-69
2021/03/31 06:26:29;;;;;;;40.67;26.08;;;;;;;10.26;100.00;102180.25;5054269;28;20041;-69
2021/03/31 06:29:08;;;;;;;45.80;27.17;;;;;;;10.27;100.00;102171.03;5052982;28;20041;-67
2021/03/31 06:31:42;;;;;;;47.38;26.52;;;;;;;10.26;100.00;102175.63;5054356;28;20032;-69
2021/03/31 06:34:09;;;;;;;;;;;;;;;10.29;100.00;102179.84;5054647;28;20113;-71
2021/03/31 06:36:36;;;;;;;48.15;26.70;;;;;;;10.30;100.00;102178.78;5054183;28;19923;-68
2021/03/31 06:39:21;;;;;;;42.38;26.08;;;;;;;10.33;100.00;102183.84;5054191;28;20041;-70
2021/03/31 06:41:59;;;;;;;48.22;26.70;;;;;;;10.36;100.00;102194.34;5054060;28;20041;-70
2021/03/31 06:47:25;;;;;;;39.83;25.80;;;;;;;10.39;100.00;102179.41;5054142;28;20040;-71
2021/03/31 06:49:51;;;;;;;44.90;27.13;;;;;;;10.38;100.00;102164.91;5053881;28;20057;-69
2021/03/31 06:52:17;;;;;;;43.95;26.35;;;;;;;10.36;100.00;102175.22;5053940;28;20043;-69
2021/03/31 06:54:45;;;;;;;44.92;27.90;;;;;;;10.34;100.00;102182.78;5052478;28;20048;-69
2021/03/31 06:57:26;;;;;;;46.20;27.48;;;;;;;10.37;100.00;102181.53;5053700;28;20120;-67
2021/03/31 07:00:07;;;;;;;49.05;29.27;;;;;;;10.40;100.00;102179.22;5053782;28;20032;-69
2021/03/31 07:02:35;;;;;;;48.08;28.83;;;;;;;10.42;100.00;102185.34;5053922;28;20029;-69
2021/03/31 07:05:01;;;;;;;49.25;29.52;;;;;;;10.42;100.00;102174.41;5053485;28;20174;-69
2021/03/31 07:07:33;;;;;;;46.67;29.15;;;;;;;10.43;100.00;102169.78;5053668;28;20119;-69
2021/03/31 07:10:22;;;;;;;47.90;26.55;;;;;;;10.46;100.00;102175.66;5053570;28;20044;-69
2021/03/31 07:12:49;;;;;;;48.38;29.33;;;;;;;10.51;100.00;102173.13;5053360;28;20455;-70
2021/03/31 07:15:18;;;;;;;49.63;28.73;;;;;;;10.57;100.00;102161.34;5053336;28;20070;-71
2021/03/31 07:17:49;;;;;;;44.22;27.77;;;;;;;10.64;100.00;102166.84;5053163;28;20039;-69
2021/03/31 07:20:15;;;;;;;45.00;26.98;;;;;;;10.68;100.00;102162.63;5053442;28;20025;-69
2021/03/31 07:22:41;;;;;;;44.53;27.73;;;;;;;10.70;100.00;102162.41;5053389;28;20394;-69
2021/03/31 07:25:09;;;;;;;50.15;27.98;;;;;;;10.73;100.00;102156.53;5053465;28;20044;-68
2021/03/31 07:27:35;;;;;;;41.78;27.80;;;;;;;10.75;100.00;102162.63;5053345;28;20090;-68
2021/03/31 07:30:12;;;;;;;43.50;27.63;;;;;;;10.74;100.00;102156.31;5053182;28;20509;-68
2021/03/31 07:32:44;;;;;;;40.85;26.15;;;;;;;10.74;100.00;102155.47;5052999;28;20032;-68
2021/03/31 07:35:11;;;;;;;48.00;29.27;;;;;;;10.75;100.00;102157.16;5052222;28;20037;-68
2021/03/31 07:37:38;;;;;;;46.35;28.52;;;;;;;10.83;100.00;102156.94;5052989;28;20048;-70
2021/03/31 07:40:07;;;;;;;43.17;27.92;;;;;;;10.84;100.00;102147.69;5053006;28;20048;-71
2021/03/31 07:42:34;;;;;;;45.67;28.38;;;;;;;10.83;100.00;102152.31;5053075;28;20029;-71
2021/03/31 07:45:04;;;;;;;42.47;27.05;;;;;;;10.82;100.00;102142.44;5052895;28;20151;-68
2021/03/31 07:47:31;;;;;;;39.88;26.75;;;;;;;10.86;100.00;102151.06;5052663;28;20037;-69
2021/03/31 07:49:57;;;;;;;43.15;27.55;;;;;;;10.87;100.00;102139.91;5042754;28;20041;-66
2021/03/31 07:52:51;;;;;;;43.13;25.27;;;;;;;10.92;100.00;102157.56;5052192;28;20078;-64
2021/03/31 07:55:40;;;;;;;38.83;24.88;;;;;;;10.95;100.00;102147.06;5051502;28;20503;-67
2021/03/31 07:58:20;;;;;;;37.95;23.90;;;;;;;10.96;100.00;102148.75;5045065;28;20064;-67
2021/03/31 08:00:58;;;;;;;37.35;24.17;;;;;;;10.93;100.00;102154.59;5052597;28;20164;-68
2021/03/31 08:03:35;;;;;;;37.35;24.13;;;;;;;10.94;100.00;102144.53;5050314;28;20479;-66
2021/03/31 08:06:01;;;;;;;37.08;23.33;;;;;;;10.93;100.00;102143.66;5035916;28;20033;-70
2021/03/31 08:08:27;;;;;;;32.88;22.58;;;;;;;10.95;100.00;102140.75;5046650;28;20394;-65
2021/03/31 08:10:55;;;;;;;32.45;23.02;;;;;;;10.99;100.00;102139.28;5041079;28;20487;-65
2021/03/31 08:13:32;;;;;;;34.20;23.08;;;;;;;11.09;100.00;102137.75;5032767;28;20039;-64
2021/03/31 08:16:00;;;;;;;31.75;22.33;;;;;;;11.18;100.00;102136.47;5036793;28;20128;-65
2021/03/31 08:18:27;;;;;;;37.42;21.70;;;;;;;11.28;100.00;102129.72;5036853;28;20037;-67
2021/03/31 08:20:55;;;;;;;37.20;23.00;;;;;;;11.39;100.00;102126.31;5032261;28;20034;-64
2021/03/31 08:23:43;;;;;;;35.42;22.95;;;;;;;11.50;100.00;102122.91;5046504;28;20032;-68
2021/03/31 08:26:29;;;;;;;35.63;21.33;;;;;;;11.62;100.00;102132.09;5042182;28;20107;-67
2021/03/31 08:28:55;;;;;;;38.92;22.77;;;;;;;11.66;100.00;102127.91;5038783;28;20476;-71
2021/03/31 08:31:26;;;;;;;37.40;23.60;;;;;;;11.73;100.00;102127.84;5036544;28;20037;-68
2021/03/31 08:33:53;;;;;;;35.40;24.05;;;;;;;11.70;100.00;102129.13;5035137;28;20490;-66
2021/03/31 08:36:18;;;;;;;39.40;24.67;;;;;;;11.72;100.00;102124.28;5049908;28;20522;-66
2021/03/31 08:38:52;;;;;;;42.08;25.05;;;;;;;11.75;100.00;102123.00;5041792;28;20081;-65
2021/03/31 08:41:22;;;;;;;35.83;24.05;;;;;;;11.77;100.00;102121.72;5031797;28;20037;-66
2021/03/31 08:43:50;;;;;;;48.85;25.27;;;;;;;11.88;100.00;102130.34;5040809;28;20040;-70
2021/03/31 08:46:30;;;;;;;39.03;23.77;;;;;;;11.96;100.00;102122.69;5044241;28;20124;-65
2021/03/31 08:48:55;;;;;;;41.20;24.88;;;;;;;12.03;100.00;102125.41;5038990;28;20487;-67
2021/03/31 08:51:21;;;;;;;42.10;24.48;;;;;;;12.13;100.00;102122.16;5045272;28;20040;-70
2021/03/31 08:53:48;;;;;;;40.65;24.45;;;;;;;12.21;100.00;102125.50;5047264;28;20039;-68
2021/03/31 08:56:22;;;;;;;36.67;24.50;;;;;;;12.29;100.00;102122.47;5049693;28;20056;-69
2021/03/31 08:58:56;;;;;;;41.43;24.43;;;;;;;12.42;100.00;102126.16;5035106;28;20037;-69
2021/03/31 09:01:32;;;;;;;31.70;23.08;;;;;;;12.48;100.00;102119.78;5038827;28;20376;-69
2021/03/31 09:04:16;;;;;;;32.22;23.35;;;;;;;12.56;100.00;102117.63;5045917;28;20052;-70
2021/03/31 09:06:42;;;;;;;33.95;23.75;;;;;;;12.69;100.00;102122.16;5049554;28;20033;-67
2021/03/31 09:09:08;;;;;;;37.33;23.92;;;;;;;12.79;100.00;102116.13;5033044;28;20444;-68
2021/03/31 09:11:34;;;;;;;36.85;23.85;;;;;;;12.89;100.00;102117.31;5040923;28;20494;-66
2021/03/31 09:14:16;;;;;;;35.25;22.58;;;;;;;12.93;100.00;102124.00;5045911;28;20083;-72
2021/03/31 09:17:00;;;;;;;46.15;24.40;;;;;;;12.98;100.00;102115.94;5042517;28;20582;-65
2021/03/31 09:19:29;;;;;;;43.75;24.77;;;;;;;13.06;100.00;102116.72;5050167;28;20044;-70
2021/03/31 09:21:55;;;;;;;37.75;23.52;;;;;;;13.15;100.00;102113.44;5051267;28;20356;-70
2021/03/31 09:24:27;;;;;;;32.80;22.88;;;;;;;13.25;100.00;102119.25;5050822;28;20029;-70
2021/03/31 09:26:57;;;;;;;34.45;23.30;;;;;;;13.34;100.00;102122.53;5051143;28;20044;-71
2021/03/31 09:29:25;;;;;;;36.00;24.23;;;;;;;13.44;100.00;102124.75;5050999;28;20055;-70
2021/03/31 09:31:51;;;;;;;37.58;24.67;;;;;;;13.49;100.00;102117.50;5049722;28;20041;-70
2021/03/31 09:34:18;;;;;;;37.03;24.02;;;;;;;13.52;100.00;102117.03;5050980;28;20629;-70
2021/03/31 09:37:02;;;;;;;39.78;24.00;;;;;;;13.63;100.00;102120.06;5050975;28;20110;-71
2021/03/31 09:39:44;;;;;;;37.38;24.52;;;;;;;13.68;100.00;102121.03;5050886;28;20048;-70
2021/03/31 09:42:35;;;;;;;36.22;24.33;;;;;;;13.68;100.00;102125.69;5050912;28;20040;-71
2021/03/31 09:45:04;;;;;;;34.35;21.85;;;;;;;13.73;100.00;102134.94;5050096;28;20108;-71
2021/03/31 09:47:31;;;;;;;38.22;23.35;;;;;;;13.76;100.00;102122.66;5049044;28;20060;-70
2021/03/31 09:49:57;;;;;;;32.83;22.73;;;;;;;13.79;100.00;102123.00;5050172;28;20120;-70
2021/03/31 09:52:27;;;;;;;37.17;23.85;;;;;;;13.85;100.00;102122.06;5050813;28;20040;-71
2021/03/31 09:54:54;;;;;;;32.88;23.00;;;;;;;13.90;100.00;102117.81;5045161;28;20475;-72
2021/03/31 09:57:27;;;;;;;37.03;23.13;;;;;;;13.96;100.00;102114.97;5046965;28;20083;-71
2021/03/31 09:59:54;;;;;;;37.83;22.93;;;;;;;14.05;100.00;102116.28;5050528;28;20068;-70
2021/03/31 10:02:20;;;;;;;32.97;22.45;;;;;;;14.14;100.00;102114.06;5049362;28;20098;-70
2021/03/31 10:04:46;;;;;;;38.08;21.35;;;;;;;14.19;100.00;102116.94;5050640;28;20479;-71
2021/03/31 10:07:17;;;;;;;39.40;22.48;;;;;;;14.19;100.00;102115.03;5050604;28;20591;-70
2021/03/31 10:09:48;;;;;;;35.17;21.67;;;;;;;14.22;100.00;102107.38;5050891;28;20035;-71
2021/03/31 10:12:27;;;;;;;33.28;21.27;;;;;;;14.29;100.00;102105.38;5032770;28;20029;-70
2021/03/31 10:14:55;;;;;;;32.30;21.75;;;;;;;14.37;100.00;102107.75;5030693;28;20065;-71
2021/03/31 10:17:22;;;;;;;34.60;21.77;;;;;;;14.45;100.00;102104.72;5030852;28;20037;-71
2021/03/31 10:19:49;;;;;;;38.15;23.67;;;;;;;14.51;100.00;102095.50;5030628;28;20029;-71
2021/03/31 10:22:16;;;;;;;36.40;23.10;;;;;;;14.54;100.00;102094.19;5030617;28;20074;-70
2021/03/31 10:24:45;;;;;;;38.10;24.05;;;;;;;14.55;100.00;102085.69;5030523;28;20034;-71
2021/03/31 10:27:12;;;;;;;36.05;23.27;;;;;;;14.60;100.00;102091.34;5030590;28;20116;-70
2021/03/31 10:29:50;;;;;;;36.50;22.70;;;;;;;14.64;100.00;102087.03;5030495;28;20052;-71
2021/03/31 10:32:18;;;;;;;38.03;24.70;;;;;;;14.68;100.00;102082.72;5030357;28;20037;-70
2021/03/31 10:34:47;;;;;;;36.35;24.63;;;;;;;14.74;100.00;102070.75;5030476;28;20086;-71
2021/03/31 10:50:45;;;;;;;49.60;29.02;;;;;;;15.29;100.00;102059.31;5030320;28;20514;-70
2021/03/31 10:53:11;;;;;;;43.97;27.95;;;;;;;15.36;100.00;102054.50;5030137;28;20033;-71
2021/03/31 10:55:40;;;;;;;42.47;27.48;;;;;;;15.49;100.00;102058.06;5030193;28;20043;-70
2021/03/31 10:58:06;;;;;;;50.88;26.05;;;;;;;15.60;100.00;102057.19;5030062;28;20112;-71
2021/03/31 11:00:34;;;;;;;40.65;26.23;;;;;;;15.71;100.00;102058.22;5028809;28;20045;-71
2021/03/31 11:03:00;;;;;;;42.53;24.73;;;;;;;15.77;100.00;102052.53;5030139;28;20432;-70
2021/03/31 11:05:26;;;;;;;41.10;27.35;;;;;;;15.85;100.00;102043.91;5030067;28;20111;-71
2021/03/31 11:07:51;;;;;;;47.05;26.85;;;;;;;15.92;100.00;102044.56;5029752;28;20037;-71
2021/03/31 11:10:17;;;;;;;52.20;29.60;;;;;;;16.02;100.00;102043.91;5033203;28;20037;-71
2021/03/31 11:12:43;;;;;;;44.85;30.13;;;;;;;16.11;100.00;102038.81;5032059;28;20448;-71
2021/03/31 11:15:18;;;;;;;44.38;29.20;;;;;;;16.21;100.00;102039.00;5033507;28;20052;-71
2021/03/31 11:25:49;;;;;;;39.80;23.77;;;;;;;16.39;100.00;102035.97;5053369;28;20037;-70
2021/03/31 11:28:15;;;;;;;;;;;;;;;16.40;100.00;102040.41;5053672;28;20048;-71
2021/03/31 11:30:41;;;;;;;37.55;23.45;;;;;;;16.38;100.00;102039.81;5050963;28;20252;-71
2021/03/31 11:33:07;;;;;;;43.33;25.02;;;;;;;16.39;100.00;102037.91;5047608;28;20184;-71
2021/03/31 11:35:32;;;;;;;44.95;25.10;;;;;;;16.36;100.00;102032.91;5034967;28;20043;-70
2021/03/31 11:37:58;;;;;;;44.38;25.55;;;;;;;16.33;100.00;102028.72;5052443;28;20453;-68